sensor_id;sensor_type;location;lat;lon;timestamp;temperature;humidity
15879;DHT22;61999;51.514;14.614;2023-10-08T00:00:47;9.80;67.20
15879;DHT22;61999;51.514;14.614;2023-10-08T00:03:18;9.80;66.90
15879;DHT22;61999;51.514;14.614;2023-10-08T00:05:47;9.90;66.50
15879;DHT22;61999;51.514;14.614;2023-10-08T00:08:16;9.90;66.00
15879;DHT22;61999;51.514;14.614;2023-10-08T00:10:44;9.80;66.20
15879;DHT22;61999;51.514;14.614;2023-10-08T00:13:15;9.70;66.20
15879;DHT22;61999;51.514;14.614;2023-10-08T00:15:43;9.60;66.30
15879;DHT22;61999;51.514;14.614;2023-10-08T00:18:19;9.60;66.70
15879;DHT22;61999;51.514;14.614;2023-10-08T00:20:49;9.50;66.60
15879;DHT22;61999;51.514;14.614;2023-10-08T00:23:25;9.40;66.90
15879;DHT22;61999;51.514;14.614;2023-10-08T00:25:53;9.30;67.20
15879;DHT22;61999;51.514;14.614;2023-10-08T00:28:23;9.30;67.30
15879;DHT22;61999;51.514;14.614;2023-10-08T00:30:55;9.30;67.40
15879;DHT22;61999;51.514;14.614;2023-10-08T00:33:24;9.30;67.30
15879;DHT22;61999;51.514;14.614;2023-10-08T00:35:52;9.30;67.10
15879;DHT22;61999;51.514;14.614;2023-10-08T00:38:20;9.40;66.70
15879;DHT22;61999;51.514;14.614;2023-10-08T00:40:48;9.30;66.80
15879;DHT22;61999;51.514;14.614;2023-10-08T00:43:33;9.20;67.00
15879;DHT22;61999;51.514;14.614;2023-10-08T00:46:03;9.20;67.20
15879;DHT22;61999;51.514;14.614;2023-10-08T00:48:32;9.10;67.40
15879;DHT22;61999;51.514;14.614;2023-10-08T00:51:03;9.20;67.30
15879;DHT22;61999;51.514;14.614;2023-10-08T00:53:43;9.20;67.10
15879;DHT22;61999;51.514;14.614;2023-10-08T00:56:12;9.10;66.90
15879;DHT22;61999;51.514;14.614;2023-10-08T00:58:44;9.10;67.00
15879;DHT22;61999;51.514;14.614;2023-10-08T01:01:16;9.00;67.00
15879;DHT22;61999;51.514;14.614;2023-10-08T01:03:46;9.00;67.30
15879;DHT22;61999;51.514;14.614;2023-10-08T01:06:16;9.00;67.60
15879;DHT22;61999;51.514;14.614;2023-10-08T01:08:46;8.90;67.40
15879;DHT22;61999;51.514;14.614;2023-10-08T01:11:20;8.90;67.80
15879;DHT22;61999;51.514;14.614;2023-10-08T01:13:59;8.80;67.80
15879;DHT22;61999;51.514;14.614;2023-10-08T01:16:28;8.80;68.00
15879;DHT22;61999;51.514;14.614;2023-10-08T01:18:59;8.80;67.80
15879;DHT22;61999;51.514;14.614;2023-10-08T01:21:28;8.80;67.70
15879;DHT22;61999;51.514;14.614;2023-10-08T01:24:05;8.80;67.70
15879;DHT22;61999;51.514;14.614;2023-10-08T01:26:34;8.80;67.50
15879;DHT22;61999;51.514;14.614;2023-10-08T01:29:08;8.70;67.50
15879;DHT22;61999;51.514;14.614;2023-10-08T01:31:46;8.80;67.30
15879;DHT22;61999;51.514;14.614;2023-10-08T01:34:18;8.90;66.10
15879;DHT22;61999;51.514;14.614;2023-10-08T01:36:53;8.90;65.60
15879;DHT22;61999;51.514;14.614;2023-10-08T01:39:22;8.80;65.50
15879;DHT22;61999;51.514;14.614;2023-10-08T01:41:53;8.80;65.40
15879;DHT22;61999;51.514;14.614;2023-10-08T01:44:21;8.70;65.30
15879;DHT22;61999;51.514;14.614;2023-10-08T01:46:49;8.60;65.60
15879;DHT22;61999;51.514;14.614;2023-10-08T01:49:17;8.50;65.60
15879;DHT22;61999;51.514;14.614;2023-10-08T01:51:49;8.50;66.60
15879;DHT22;61999;51.514;14.614;2023-10-08T01:54:17;8.40;66.10
15879;DHT22;61999;51.514;14.614;2023-10-08T01:56:49;8.40;66.00
15879;DHT22;61999;51.514;14.614;2023-10-08T01:59:17;8.30;65.90
15879;DHT22;61999;51.514;14.614;2023-10-08T02:01:45;8.30;65.50
15879;DHT22;61999;51.514;14.614;2023-10-08T02:04:14;8.20;65.40
15879;DHT22;61999;51.514;14.614;2023-10-08T02:06:43;8.10;65.60
15879;DHT22;61999;51.514;14.614;2023-10-08T02:09:15;8.00;65.70
15879;DHT22;61999;51.514;14.614;2023-10-08T02:11:47;7.90;66.00
15879;DHT22;61999;51.514;14.614;2023-10-08T02:14:17;7.80;66.10
15879;DHT22;61999;51.514;14.614;2023-10-08T02:16:47;7.80;66.20
15879;DHT22;61999;51.514;14.614;2023-10-08T02:19:16;7.70;66.10
15879;DHT22;61999;51.514;14.614;2023-10-08T02:21:54;7.70;66.30
15879;DHT22;61999;51.514;14.614;2023-10-08T02:24:23;7.70;66.40
15879;DHT22;61999;51.514;14.614;2023-10-08T02:26:54;7.70;66.30
15879;DHT22;61999;51.514;14.614;2023-10-08T02:29:25;7.60;66.40
15879;DHT22;61999;51.514;14.614;2023-10-08T02:31:56;7.50;66.70
15879;DHT22;61999;51.514;14.614;2023-10-08T02:34:28;7.60;66.50
15879;DHT22;61999;51.514;14.614;2023-10-08T02:36:57;7.60;66.20
15879;DHT22;61999;51.514;14.614;2023-10-08T02:39:26;7.60;66.20
15879;DHT22;61999;51.514;14.614;2023-10-08T02:41:55;7.60;66.20
15879;DHT22;61999;51.514;14.614;2023-10-08T02:44:26;7.60;66.40
15879;DHT22;61999;51.514;14.614;2023-10-08T02:46:55;7.60;66.40
15879;DHT22;61999;51.514;14.614;2023-10-08T02:49:23;7.50;66.30
15879;DHT22;61999;51.514;14.614;2023-10-08T02:51:54;7.40;66.60
15879;DHT22;61999;51.514;14.614;2023-10-08T02:54:25;7.40;66.80
15879;DHT22;61999;51.514;14.614;2023-10-08T02:57:00;7.40;66.90
15879;DHT22;61999;51.514;14.614;2023-10-08T02:59:32;7.30;66.90
15879;DHT22;61999;51.514;14.614;2023-10-08T03:02:06;7.30;67.40
15879;DHT22;61999;51.514;14.614;2023-10-08T03:04:40;7.30;67.30
15879;DHT22;61999;51.514;14.614;2023-10-08T03:07:09;7.30;67.40
15879;DHT22;61999;51.514;14.614;2023-10-08T03:09:48;7.20;67.40
15879;DHT22;61999;51.514;14.614;2023-10-08T03:12:18;7.20;67.30
15879;DHT22;61999;51.514;14.614;2023-10-08T03:14:51;7.20;67.50
15879;DHT22;61999;51.514;14.614;2023-10-08T03:17:39;7.20;67.30
15879;DHT22;61999;51.514;14.614;2023-10-08T03:20:16;7.20;67.40
15879;DHT22;61999;51.514;14.614;2023-10-08T03:23:05;7.20;67.40
15879;DHT22;61999;51.514;14.614;2023-10-08T03:25:39;7.20;67.10
15879;DHT22;61999;51.514;14.614;2023-10-08T03:28:11;7.20;66.60
15879;DHT22;61999;51.514;14.614;2023-10-08T03:30:40;7.10;66.70
15879;DHT22;61999;51.514;14.614;2023-10-08T03:33:16;7.10;67.00
15879;DHT22;61999;51.514;14.614;2023-10-08T03:35:50;7.00;67.40
15879;DHT22;61999;51.514;14.614;2023-10-08T03:38:21;7.00;67.40
15879;DHT22;61999;51.514;14.614;2023-10-08T03:40:55;7.00;68.50
15879;DHT22;61999;51.514;14.614;2023-10-08T03:43:34;7.00;67.80
15879;DHT22;61999;51.514;14.614;2023-10-08T03:46:10;7.00;67.70
15879;DHT22;61999;51.514;14.614;2023-10-08T03:48:42;7.10;67.70
15879;DHT22;61999;51.514;14.614;2023-10-08T03:51:12;7.20;66.80
15879;DHT22;61999;51.514;14.614;2023-10-08T03:53:41;7.00;67.20
15879;DHT22;61999;51.514;14.614;2023-10-08T03:56:25;7.00;67.50
15879;DHT22;61999;51.514;14.614;2023-10-08T03:58:58;6.90;67.90
15879;DHT22;61999;51.514;14.614;2023-10-08T04:01:27;7.00;67.80
15879;DHT22;61999;51.514;14.614;2023-10-08T04:03:59;7.10;67.20
15879;DHT22;61999;51.514;14.614;2023-10-08T04:06:28;7.20;66.90
15879;DHT22;61999;51.514;14.614;2023-10-08T04:08:59;7.30;66.40
15879;DHT22;61999;51.514;14.614;2023-10-08T04:11:39;7.10;67.10
15879;DHT22;61999;51.514;14.614;2023-10-08T04:14:21;7.00;67.60
15879;DHT22;61999;51.514;14.614;2023-10-08T04:16:50;6.80;67.60
15879;DHT22;61999;51.514;14.614;2023-10-08T04:19:20;6.60;68.10
15879;DHT22;61999;51.514;14.614;2023-10-08T04:21:53;6.60;68.40
15879;DHT22;61999;51.514;14.614;2023-10-08T04:24:23;6.60;68.90
15879;DHT22;61999;51.514;14.614;2023-10-08T04:26:56;6.60;69.00
15879;DHT22;61999;51.514;14.614;2023-10-08T04:29:26;6.70;68.90
15879;DHT22;61999;51.514;14.614;2023-10-08T04:31:59;6.60;68.70
15879;DHT22;61999;51.514;14.614;2023-10-08T04:34:36;6.80;68.90
15879;DHT22;61999;51.514;14.614;2023-10-08T04:37:04;6.70;68.50
15879;DHT22;61999;51.514;14.614;2023-10-08T04:39:39;6.60;69.00
15879;DHT22;61999;51.514;14.614;2023-10-08T04:42:13;6.90;68.80
15879;DHT22;61999;51.514;14.614;2023-10-08T04:44:53;6.90;67.80
15879;DHT22;61999;51.514;14.614;2023-10-08T04:47:22;6.70;68.40
15879;DHT22;61999;51.514;14.614;2023-10-08T04:50:00;6.60;68.90
15879;DHT22;61999;51.514;14.614;2023-10-08T04:52:31;6.70;69.00
15879;DHT22;61999;51.514;14.614;2023-10-08T04:55:01;6.80;68.50
15879;DHT22;61999;51.514;14.614;2023-10-08T04:57:42;6.70;68.60
15879;DHT22;61999;51.514;14.614;2023-10-08T05:00:12;6.60;69.20
15879;DHT22;61999;51.514;14.614;2023-10-08T05:02:42;6.80;68.30
15879;DHT22;61999;51.514;14.614;2023-10-08T05:05:17;6.70;68.70
15879;DHT22;61999;51.514;14.614;2023-10-08T05:07:56;6.60;68.50
15879;DHT22;61999;51.514;14.614;2023-10-08T05:10:42;6.50;69.00
15879;DHT22;61999;51.514;14.614;2023-10-08T05:13:28;6.60;70.00
15879;DHT22;61999;51.514;14.614;2023-10-08T05:16:13;6.60;69.40
15879;DHT22;61999;51.514;14.614;2023-10-08T05:19:02;6.50;69.30
15879;DHT22;61999;51.514;14.614;2023-10-08T05:22:04;6.50;69.70
15879;DHT22;61999;51.514;14.614;2023-10-08T05:24:45;6.60;69.40
15879;DHT22;61999;51.514;14.614;2023-10-08T05:27:34;6.50;69.50
15879;DHT22;61999;51.514;14.614;2023-10-08T05:30:22;6.60;69.40
15879;DHT22;61999;51.514;14.614;2023-10-08T05:33:09;6.80;68.70
15879;DHT22;61999;51.514;14.614;2023-10-08T05:35:52;6.80;68.70
15879;DHT22;61999;51.514;14.614;2023-10-08T05:38:30;6.60;69.10
15879;DHT22;61999;51.514;14.614;2023-10-08T05:41:15;6.50;69.40
15879;DHT22;61999;51.514;14.614;2023-10-08T05:44:06;6.60;70.10
15879;DHT22;61999;51.514;14.614;2023-10-08T05:46:51;6.80;69.00
15879;DHT22;61999;51.514;14.614;2023-10-08T05:49:51;6.80;69.20
15879;DHT22;61999;51.514;14.614;2023-10-08T05:52:36;6.60;69.50
15879;DHT22;61999;51.514;14.614;2023-10-08T05:55:17;6.60;69.80
15879;DHT22;61999;51.514;14.614;2023-10-08T05:57:53;6.60;69.90
15879;DHT22;61999;51.514;14.614;2023-10-08T06:00:40;6.60;69.80
15879;DHT22;61999;51.514;14.614;2023-10-08T06:03:32;6.60;70.20
15879;DHT22;61999;51.514;14.614;2023-10-08T06:06:07;6.60;70.40
15879;DHT22;61999;51.514;14.614;2023-10-08T06:09:03;6.70;70.50
15879;DHT22;61999;51.514;14.614;2023-10-08T06:11:38;6.70;70.40
15879;DHT22;61999;51.514;14.614;2023-10-08T06:14:12;6.70;70.50
15879;DHT22;61999;51.514;14.614;2023-10-08T06:16:44;6.70;70.60
15879;DHT22;61999;51.514;14.614;2023-10-08T06:19:14;6.70;70.80
15879;DHT22;61999;51.514;14.614;2023-10-08T06:21:42;6.80;71.70
15879;DHT22;61999;51.514;14.614;2023-10-08T06:24:11;6.80;70.90
15879;DHT22;61999;51.514;14.614;2023-10-08T06:26:43;6.80;71.00
15879;DHT22;61999;51.514;14.614;2023-10-08T06:29:15;6.80;70.90
15879;DHT22;61999;51.514;14.614;2023-10-08T06:31:54;6.90;71.00
15879;DHT22;61999;51.514;14.614;2023-10-08T06:34:23;6.90;70.80
15879;DHT22;61999;51.514;14.614;2023-10-08T06:36:58;7.00;70.70
15879;DHT22;61999;51.514;14.614;2023-10-08T06:39:28;7.00;70.40
15879;DHT22;61999;51.514;14.614;2023-10-08T06:42:14;7.00;70.40
15879;DHT22;61999;51.514;14.614;2023-10-08T06:44:43;7.10;70.80
15879;DHT22;61999;51.514;14.614;2023-10-08T06:47:13;7.10;70.90
15879;DHT22;61999;51.514;14.614;2023-10-08T06:49:42;7.20;70.70
15879;DHT22;61999;51.514;14.614;2023-10-08T06:52:12;7.30;70.30
15879;DHT22;61999;51.514;14.614;2023-10-08T06:54:40;7.30;70.50
15879;DHT22;61999;51.514;14.614;2023-10-08T06:57:08;7.30;70.30
15879;DHT22;61999;51.514;14.614;2023-10-08T06:59:40;7.30;70.50
15879;DHT22;61999;51.514;14.614;2023-10-08T07:02:09;7.30;70.30
15879;DHT22;61999;51.514;14.614;2023-10-08T07:04:38;7.40;70.30
15879;DHT22;61999;51.514;14.614;2023-10-08T07:07:08;7.40;70.50
15879;DHT22;61999;51.514;14.614;2023-10-08T07:09:39;7.50;70.00
15879;DHT22;61999;51.514;14.614;2023-10-08T07:12:10;7.60;69.90
15879;DHT22;61999;51.514;14.614;2023-10-08T07:14:41;7.60;69.80
15879;DHT22;61999;51.514;14.614;2023-10-08T07:17:10;7.70;70.00
15879;DHT22;61999;51.514;14.614;2023-10-08T07:19:46;7.70;70.20
15879;DHT22;61999;51.514;14.614;2023-10-08T07:22:17;7.70;70.80
15879;DHT22;61999;51.514;14.614;2023-10-08T07:24:50;7.90;70.30
15879;DHT22;61999;51.514;14.614;2023-10-08T07:27:19;7.90;70.00
15879;DHT22;61999;51.514;14.614;2023-10-08T07:29:52;8.00;69.30
15879;DHT22;61999;51.514;14.614;2023-10-08T07:32:23;8.10;68.60
15879;DHT22;61999;51.514;14.614;2023-10-08T07:34:52;8.20;68.10
15879;DHT22;61999;51.514;14.614;2023-10-08T07:37:31;8.20;68.20
15879;DHT22;61999;51.514;14.614;2023-10-08T07:40:01;8.20;68.00
15879;DHT22;61999;51.514;14.614;2023-10-08T07:42:36;8.20;68.30
15879;DHT22;61999;51.514;14.614;2023-10-08T07:45:07;8.30;67.70
15879;DHT22;61999;51.514;14.614;2023-10-08T07:47:44;8.30;67.70
15879;DHT22;61999;51.514;14.614;2023-10-08T07:50:13;8.40;67.60
15879;DHT22;61999;51.514;14.614;2023-10-08T07:52:42;8.40;67.80
15879;DHT22;61999;51.514;14.614;2023-10-08T07:55:12;8.40;67.60
15879;DHT22;61999;51.514;14.614;2023-10-08T07:57:44;8.50;67.80
15879;DHT22;61999;51.514;14.614;2023-10-08T08:00:13;8.50;67.60
15879;DHT22;61999;51.514;14.614;2023-10-08T08:02:52;8.60;68.10
15879;DHT22;61999;51.514;14.614;2023-10-08T08:05:22;8.60;68.10
15879;DHT22;61999;51.514;14.614;2023-10-08T08:07:51;8.80;67.50
15879;DHT22;61999;51.514;14.614;2023-10-08T08:10:22;8.90;67.10
15879;DHT22;61999;51.514;14.614;2023-10-08T08:12:50;8.90;67.00
15879;DHT22;61999;51.514;14.614;2023-10-08T08:15:25;9.00;66.90
15879;DHT22;61999;51.514;14.614;2023-10-08T08:17:55;9.10;67.40
15879;DHT22;61999;51.514;14.614;2023-10-08T08:20:24;9.10;66.40
15879;DHT22;61999;51.514;14.614;2023-10-08T08:23:01;9.20;66.20
15879;DHT22;61999;51.514;14.614;2023-10-08T08:25:39;9.20;66.70
15879;DHT22;61999;51.514;14.614;2023-10-08T08:28:22;9.30;65.60
15879;DHT22;61999;51.514;14.614;2023-10-08T08:30:51;9.40;65.20
15879;DHT22;61999;51.514;14.614;2023-10-08T08:33:21;9.50;65.00
15879;DHT22;61999;51.514;14.614;2023-10-08T08:35:58;9.60;64.80
15879;DHT22;61999;51.514;14.614;2023-10-08T08:38:28;9.70;65.70
15879;DHT22;61999;51.514;14.614;2023-10-08T08:41:04;10.00;66.30
15879;DHT22;61999;51.514;14.614;2023-10-08T08:43:34;10.30;65.20
15879;DHT22;61999;51.514;14.614;2023-10-08T08:46:04;10.60;64.50
15879;DHT22;61999;51.514;14.614;2023-10-08T08:48:34;11.00;62.60
15879;DHT22;61999;51.514;14.614;2023-10-08T08:51:05;11.40;62.30
15879;DHT22;61999;51.514;14.614;2023-10-08T08:53:36;11.70;59.80
15879;DHT22;61999;51.514;14.614;2023-10-08T08:56:06;12.10;59.30
15879;DHT22;61999;51.514;14.614;2023-10-08T08:58:37;12.30;58.40
15879;DHT22;61999;51.514;14.614;2023-10-08T09:01:10;12.40;57.10
15879;DHT22;61999;51.514;14.614;2023-10-08T09:03:40;12.50;57.60
15879;DHT22;61999;51.514;14.614;2023-10-08T09:06:09;12.50;57.70
15879;DHT22;61999;51.514;14.614;2023-10-08T09:08:38;12.60;57.90
15879;DHT22;61999;51.514;14.614;2023-10-08T09:11:14;12.60;57.10
15879;DHT22;61999;51.514;14.614;2023-10-08T09:13:43;12.50;57.00
15879;DHT22;61999;51.514;14.614;2023-10-08T09:16:13;12.50;57.50
15879;DHT22;61999;51.514;14.614;2023-10-08T09:18:43;12.70;57.90
15879;DHT22;61999;51.514;14.614;2023-10-08T09:21:14;13.00;57.40
15879;DHT22;61999;51.514;14.614;2023-10-08T09:23:49;13.40;59.20
15879;DHT22;61999;51.514;14.614;2023-10-08T09:26:22;13.80;55.70
15879;DHT22;61999;51.514;14.614;2023-10-08T09:28:52;14.20;55.10
15879;DHT22;61999;51.514;14.614;2023-10-08T09:31:22;14.60;54.30
15879;DHT22;61999;51.514;14.614;2023-10-08T09:33:54;14.90;55.80
15879;DHT22;61999;51.514;14.614;2023-10-08T09:36:23;15.30;56.40
15879;DHT22;61999;51.514;14.614;2023-10-08T09:39:00;15.80;56.40
15879;DHT22;61999;51.514;14.614;2023-10-08T09:41:32;16.20;55.10
15879;DHT22;61999;51.514;14.614;2023-10-08T09:44:04;16.50;53.00
15879;DHT22;61999;51.514;14.614;2023-10-08T09:46:37;16.80;51.60
15879;DHT22;61999;51.514;14.614;2023-10-08T09:49:11;17.10;48.60
15879;DHT22;61999;51.514;14.614;2023-10-08T09:51:43;17.40;47.00
15879;DHT22;61999;51.514;14.614;2023-10-08T09:54:17;17.70;47.80
15879;DHT22;61999;51.514;14.614;2023-10-08T09:56:51;18.10;48.40
15879;DHT22;61999;51.514;14.614;2023-10-08T09:59:20;18.50;48.80
15879;DHT22;61999;51.514;14.614;2023-10-08T10:01:48;18.80;47.50
15879;DHT22;61999;51.514;14.614;2023-10-08T10:04:23;18.90;40.20
15879;DHT22;61999;51.514;14.614;2023-10-08T10:06:52;19.00;44.30
15879;DHT22;61999;51.514;14.614;2023-10-08T10:09:20;19.00;41.90
15879;DHT22;61999;51.514;14.614;2023-10-08T10:11:54;19.10;42.60
15879;DHT22;61999;51.514;14.614;2023-10-08T10:14:24;19.00;44.00
15879;DHT22;61999;51.514;14.614;2023-10-08T10:17:09;18.90;40.10
15879;DHT22;61999;51.514;14.614;2023-10-08T10:19:53;18.50;41.10
15879;DHT22;61999;51.514;14.614;2023-10-08T10:22:29;18.20;39.80
15879;DHT22;61999;51.514;14.614;2023-10-08T10:25:02;17.70;40.50
15879;DHT22;61999;51.514;14.614;2023-10-08T10:27:51;17.50;40.70
15879;DHT22;61999;51.514;14.614;2023-10-08T10:30:51;17.30;42.70
15879;DHT22;61999;51.514;14.614;2023-10-08T10:33:19;17.40;40.70
15879;DHT22;61999;51.514;14.614;2023-10-08T10:35:51;17.50;38.50
15879;DHT22;61999;51.514;14.614;2023-10-08T10:38:20;17.40;38.50
15879;DHT22;61999;51.514;14.614;2023-10-08T10:40:53;17.40;39.80
15879;DHT22;61999;51.514;14.614;2023-10-08T10:43:26;17.40;40.40
15879;DHT22;61999;51.514;14.614;2023-10-08T10:45:59;17.60;40.60
15879;DHT22;61999;51.514;14.614;2023-10-08T10:48:52;17.90;40.40
15879;DHT22;61999;51.514;14.614;2023-10-08T10:51:36;18.40;37.70
15879;DHT22;61999;51.514;14.614;2023-10-08T10:54:08;18.70;39.20
15879;DHT22;61999;51.514;14.614;2023-10-08T10:56:37;19.00;39.20
15879;DHT22;61999;51.514;14.614;2023-10-08T10:59:10;19.20;39.20
15879;DHT22;61999;51.514;14.614;2023-10-08T11:01:47;19.20;36.40
15879;DHT22;61999;51.514;14.614;2023-10-08T11:04:19;19.20;35.50
15879;DHT22;61999;51.514;14.614;2023-10-08T11:06:56;19.00;33.20
15879;DHT22;61999;51.514;14.614;2023-10-08T11:09:27;18.90;34.80
15879;DHT22;61999;51.514;14.614;2023-10-08T11:12:06;19.20;31.60
15879;DHT22;61999;51.514;14.614;2023-10-08T11:14:40;19.20;31.90
15879;DHT22;61999;51.514;14.614;2023-10-08T11:17:11;19.00;33.00
15879;DHT22;61999;51.514;14.614;2023-10-08T11:19:42;18.90;34.90
15879;DHT22;61999;51.514;14.614;2023-10-08T11:22:13;19.00;35.90
15879;DHT22;61999;51.514;14.614;2023-10-08T11:24:46;19.40;35.50
15879;DHT22;61999;51.514;14.614;2023-10-08T11:27:17;19.70;35.20
15879;DHT22;61999;51.514;14.614;2023-10-08T11:29:57;20.10;33.80
15879;DHT22;61999;51.514;14.614;2023-10-08T11:32:27;20.30;28.80
15879;DHT22;61999;51.514;14.614;2023-10-08T11:34:59;20.50;29.60
15879;DHT22;61999;51.514;14.614;2023-10-08T11:37:33;20.60;30.10
15879;DHT22;61999;51.514;14.614;2023-10-08T11:40:02;20.70;29.10
15879;DHT22;61999;51.514;14.614;2023-10-08T11:42:42;20.80;29.80
15879;DHT22;61999;51.514;14.614;2023-10-08T11:45:13;21.00;29.30
15879;DHT22;61999;51.514;14.614;2023-10-08T11:47:50;21.10;30.60
15879;DHT22;61999;51.514;14.614;2023-10-08T11:50:23;21.50;30.00
15879;DHT22;61999;51.514;14.614;2023-10-08T11:52:58;21.80;29.90
15879;DHT22;61999;51.514;14.614;2023-10-08T11:55:31;22.40;28.10
15879;DHT22;61999;51.514;14.614;2023-10-08T11:58:03;22.80;27.10
15879;DHT22;61999;51.514;14.614;2023-10-08T12:00:38;22.80;27.40
15879;DHT22;61999;51.514;14.614;2023-10-08T12:03:12;22.50;27.20
15879;DHT22;61999;51.514;14.614;2023-10-08T12:05:45;22.20;27.30
15879;DHT22;61999;51.514;14.614;2023-10-08T12:08:19;21.80;28.00
15879;DHT22;61999;51.514;14.614;2023-10-08T12:10:49;21.50;27.50
15879;DHT22;61999;51.514;14.614;2023-10-08T12:13:21;21.40;26.20
15879;DHT22;61999;51.514;14.614;2023-10-08T12:15:53;21.00;26.40
15879;DHT22;61999;51.514;14.614;2023-10-08T12:18:32;20.10;26.90
15879;DHT22;61999;51.514;14.614;2023-10-08T12:21:06;19.40;27.70
15879;DHT22;61999;51.514;14.614;2023-10-08T12:23:37;18.70;29.30
15879;DHT22;61999;51.514;14.614;2023-10-08T12:26:05;18.20;30.00
15879;DHT22;61999;51.514;14.614;2023-10-08T12:28:34;17.90;30.80
15879;DHT22;61999;51.514;14.614;2023-10-08T12:31:04;17.70;30.80
15879;DHT22;61999;51.514;14.614;2023-10-08T12:33:32;17.60;31.00
15879;DHT22;61999;51.514;14.614;2023-10-08T12:36:01;17.50;30.50
15879;DHT22;61999;51.514;14.614;2023-10-08T12:38:38;17.40;30.20
15879;DHT22;61999;51.514;14.614;2023-10-08T12:41:09;17.70;30.50
15879;DHT22;61999;51.514;14.614;2023-10-08T12:43:41;17.90;31.00
15879;DHT22;61999;51.514;14.614;2023-10-08T12:46:13;18.00;31.20
15879;DHT22;61999;51.514;14.614;2023-10-08T12:48:46;18.20;31.10
15879;DHT22;61999;51.514;14.614;2023-10-08T12:51:19;18.40;29.80
15879;DHT22;61999;51.514;14.614;2023-10-08T12:53:51;18.60;29.30
15879;DHT22;61999;51.514;14.614;2023-10-08T12:56:26;18.90;28.80
15879;DHT22;61999;51.514;14.614;2023-10-08T12:59:02;18.70;29.30
15879;DHT22;61999;51.514;14.614;2023-10-08T13:01:35;18.80;29.50
15879;DHT22;61999;51.514;14.614;2023-10-08T13:04:07;19.00;30.50
15879;DHT22;61999;51.514;14.614;2023-10-08T13:06:42;19.30;30.60
15879;DHT22;61999;51.514;14.614;2023-10-08T13:09:12;19.50;30.70
15879;DHT22;61999;51.514;14.614;2023-10-08T13:11:40;19.70;30.60
15879;DHT22;61999;51.514;14.614;2023-10-08T13:14:09;19.90;30.90
15879;DHT22;61999;51.514;14.614;2023-10-08T13:16:39;20.30;30.30
15879;DHT22;61999;51.514;14.614;2023-10-08T13:19:08;20.80;27.40
15879;DHT22;61999;51.514;14.614;2023-10-08T13:21:36;21.10;27.30
15879;DHT22;61999;51.514;14.614;2023-10-08T13:24:05;21.50;27.30
15879;DHT22;61999;51.514;14.614;2023-10-08T13:26:36;21.80;28.60
15879;DHT22;61999;51.514;14.614;2023-10-08T13:29:05;22.10;29.30
15879;DHT22;61999;51.514;14.614;2023-10-08T13:31:36;22.50;29.50
15879;DHT22;61999;51.514;14.614;2023-10-08T13:34:05;23.00;29.50
15879;DHT22;61999;51.514;14.614;2023-10-08T13:36:36;23.40;29.90
15879;DHT22;61999;51.514;14.614;2023-10-08T13:39:06;24.00;28.60
15879;DHT22;61999;51.514;14.614;2023-10-08T13:41:36;24.60;28.80
15879;DHT22;61999;51.514;14.614;2023-10-08T13:44:05;25.20;25.60
15879;DHT22;61999;51.514;14.614;2023-10-08T13:46:34;25.40;26.90
15879;DHT22;61999;51.514;14.614;2023-10-08T13:49:04;25.70;27.10
15879;DHT22;61999;51.514;14.614;2023-10-08T13:51:35;26.00;26.10
15879;DHT22;61999;51.514;14.614;2023-10-08T13:54:04;26.10;25.80
15879;DHT22;61999;51.514;14.614;2023-10-08T13:56:36;26.30;26.20
15879;DHT22;61999;51.514;14.614;2023-10-08T13:59:04;26.50;25.70
15879;DHT22;61999;51.514;14.614;2023-10-08T14:01:40;26.60;26.10
15879;DHT22;61999;51.514;14.614;2023-10-08T14:04:14;26.80;26.20
15879;DHT22;61999;51.514;14.614;2023-10-08T14:06:46;27.10;24.40
15879;DHT22;61999;51.514;14.614;2023-10-08T14:09:19;27.30;24.00
15879;DHT22;61999;51.514;14.614;2023-10-08T14:11:49;27.30;23.70
15879;DHT22;61999;51.514;14.614;2023-10-08T14:14:19;27.30;23.20
15879;DHT22;61999;51.514;14.614;2023-10-08T14:16:51;27.20;23.10
15879;DHT22;61999;51.514;14.614;2023-10-08T14:19:22;27.00;23.50
15879;DHT22;61999;51.514;14.614;2023-10-08T14:21:55;26.90;23.60
15879;DHT22;61999;51.514;14.614;2023-10-08T14:24:29;26.80;23.70
15879;DHT22;61999;51.514;14.614;2023-10-08T14:27:02;26.90;22.00
15879;DHT22;61999;51.514;14.614;2023-10-08T14:29:37;26.90;22.00
15879;DHT22;61999;51.514;14.614;2023-10-08T14:32:08;26.40;22.20
15879;DHT22;61999;51.514;14.614;2023-10-08T14:34:38;26.10;22.70
15879;DHT22;61999;51.514;14.614;2023-10-08T14:37:24;25.80;23.40
15879;DHT22;61999;51.514;14.614;2023-10-08T14:40:10;25.60;23.80
15879;DHT22;61999;51.514;14.614;2023-10-08T14:42:56;25.40;23.80
15879;DHT22;61999;51.514;14.614;2023-10-08T14:45:29;25.10;23.20
15879;DHT22;61999;51.514;14.614;2023-10-08T14:48:00;24.80;22.80
15879;DHT22;61999;51.514;14.614;2023-10-08T14:50:30;24.30;23.10
15879;DHT22;61999;51.514;14.614;2023-10-08T14:53:00;23.70;23.60
15879;DHT22;61999;51.514;14.614;2023-10-08T14:55:31;23.10;23.90
15879;DHT22;61999;51.514;14.614;2023-10-08T14:58:08;22.60;24.00
15879;DHT22;61999;51.514;14.614;2023-10-08T15:00:50;22.00;24.50
15879;DHT22;61999;51.514;14.614;2023-10-08T15:03:27;21.60;25.00
15879;DHT22;61999;51.514;14.614;2023-10-08T15:05:59;21.20;25.20
15879;DHT22;61999;51.514;14.614;2023-10-08T15:08:30;20.90;25.50
15879;DHT22;61999;51.514;14.614;2023-10-08T15:10:59;20.60;25.90
15879;DHT22;61999;51.514;14.614;2023-10-08T15:13:29;20.30;26.30
15879;DHT22;61999;51.514;14.614;2023-10-08T15:16:00;20.20;26.20
15879;DHT22;61999;51.514;14.614;2023-10-08T15:18:31;19.90;26.30
15879;DHT22;61999;51.514;14.614;2023-10-08T15:21:10;19.60;26.70
15879;DHT22;61999;51.514;14.614;2023-10-08T15:23:38;19.40;27.10
15879;DHT22;61999;51.514;14.614;2023-10-08T15:26:06;19.30;27.40
15879;DHT22;61999;51.514;14.614;2023-10-08T15:28:34;19.20;27.70
15879;DHT22;61999;51.514;14.614;2023-10-08T15:31:03;19.20;27.90
15879;DHT22;61999;51.514;14.614;2023-10-08T15:33:31;19.30;28.60
15879;DHT22;61999;51.514;14.614;2023-10-08T15:35:59;19.30;28.00
15879;DHT22;61999;51.514;14.614;2023-10-08T15:38:29;19.40;28.10
15879;DHT22;61999;51.514;14.614;2023-10-08T15:40:57;19.50;28.20
15879;DHT22;61999;51.514;14.614;2023-10-08T15:43:26;19.50;28.10
15879;DHT22;61999;51.514;14.614;2023-10-08T15:45:54;19.50;28.00
15879;DHT22;61999;51.514;14.614;2023-10-08T15:48:22;19.30;27.80
15879;DHT22;61999;51.514;14.614;2023-10-08T15:50:52;19.10;27.60
15879;DHT22;61999;51.514;14.614;2023-10-08T15:53:20;18.80;27.40
15879;DHT22;61999;51.514;14.614;2023-10-08T15:55:49;18.50;27.60
15879;DHT22;61999;51.514;14.614;2023-10-08T15:58:17;18.20;27.70
15879;DHT22;61999;51.514;14.614;2023-10-08T16:00:45;17.80;27.80